sensor_id;sensor_type;location;lat;lon;timestamp;temperature;humidity
27779;DHT22;30234;48.090;11.464;2023-04-21T00:01:59;6.90;99.90
27779;DHT22;30234;48.090;11.464;2023-04-21T00:06:00;6.80;99.90
27779;DHT22;30234;48.090;11.464;2023-04-21T00:10:00;6.80;99.90
27779;DHT22;30234;48.090;11.464;2023-04-21T00:14:01;6.90;99.90
27779;DHT22;30234;48.090;11.464;2023-04-21T00:18:02;7.10;99.90
27779;DHT22;30234;48.090;11.464;2023-04-21T00:22:13;7.10;99.90
27779;DHT22;30234;48.090;11.464;2023-04-21T00:28:23;7.00;99.90
27779;DHT22;30234;48.090;11.464;2023-04-21T00:32:24;7.00;99.90
27779;DHT22;30234;48.090;11.464;2023-04-21T00:36:25;7.00;99.90
27779;DHT22;30234;48.090;11.464;2023-04-21T00:40:27;7.00;99.90
27779;DHT22;30234;48.090;11.464;2023-04-21T00:44:28;7.00;99.90
27779;DHT22;30234;48.090;11.464;2023-04-21T00:48:29;7.00;99.90
27779;DHT22;30234;48.090;11.464;2023-04-21T00:52:30;7.00;99.90
27779;DHT22;30234;48.090;11.464;2023-04-21T00:56:33;6.90;99.90
27779;DHT22;30234;48.090;11.464;2023-04-21T01:00:36;6.80;99.90
27779;DHT22;30234;48.090;11.464;2023-04-21T01:04:37;6.90;99.90
27779;DHT22;30234;48.090;11.464;2023-04-21T01:08:39;6.90;99.90
27779;DHT22;30234;48.090;11.464;2023-04-21T01:12:46;6.80;99.90
27779;DHT22;30234;48.090;11.464;2023-04-21T01:16:47;6.80;99.90
27779;DHT22;30234;48.090;11.464;2023-04-21T01:20:48;6.90;99.90
27779;DHT22;30234;48.090;11.464;2023-04-21T01:24:49;6.70;99.90
27779;DHT22;30234;48.090;11.464;2023-04-21T01:28:51;6.80;99.90
27779;DHT22;30234;48.090;11.464;2023-04-21T01:32:52;6.90;99.90
27779;DHT22;30234;48.090;11.464;2023-04-21T01:36:52;6.90;99.90
27779;DHT22;30234;48.090;11.464;2023-04-21T01:40:54;6.80;99.90
27779;DHT22;30234;48.090;11.464;2023-04-21T01:44:55;6.80;99.90
27779;DHT22;30234;48.090;11.464;2023-04-21T01:48:56;6.80;99.90
27779;DHT22;30234;48.090;11.464;2023-04-21T01:52:57;6.90;99.90
27779;DHT22;30234;48.090;11.464;2023-04-21T01:56:58;6.90;99.90
27779;DHT22;30234;48.090;11.464;2023-04-21T02:00:59;6.90;99.90
27779;DHT22;30234;48.090;11.464;2023-04-21T02:05:00;6.90;99.90
27779;DHT22;30234;48.090;11.464;2023-04-21T02:09:00;6.90;99.90
27779;DHT22;30234;48.090;11.464;2023-04-21T02:13:01;6.80;99.90
27779;DHT22;30234;48.090;11.464;2023-04-21T02:17:03;6.70;99.90
27779;DHT22;30234;48.090;11.464;2023-04-21T02:21:05;6.70;99.90
27779;DHT22;30234;48.090;11.464;2023-04-21T02:25:06;6.80;99.90
27779;DHT22;30234;48.090;11.464;2023-04-21T02:29:07;6.70;99.90
27779;DHT22;30234;48.090;11.464;2023-04-21T02:33:08;6.80;99.90
27779;DHT22;30234;48.090;11.464;2023-04-21T02:37:08;6.80;99.90
27779;DHT22;30234;48.090;11.464;2023-04-21T02:41:09;6.70;99.90
27779;DHT22;30234;48.090;11.464;2023-04-21T02:45:10;6.60;99.90
27779;DHT22;30234;48.090;11.464;2023-04-21T02:49:11;6.60;99.90
27779;DHT22;30234;48.090;11.464;2023-04-21T02:53:12;6.60;99.90
27779;DHT22;30234;48.090;11.464;2023-04-21T02:57:13;6.60;99.90
27779;DHT22;30234;48.090;11.464;2023-04-21T03:01:14;6.40;99.90
27779;DHT22;30234;48.090;11.464;2023-04-21T03:05:15;6.40;99.90
27779;DHT22;30234;48.090;11.464;2023-04-21T03:09:17;6.30;99.90
27779;DHT22;30234;48.090;11.464;2023-04-21T03:13:17;6.40;99.90
27779;DHT22;30234;48.090;11.464;2023-04-21T03:17:18;6.40;99.90
27779;DHT22;30234;48.090;11.464;2023-04-21T03:21:19;6.40;99.90
27779;DHT22;30234;48.090;11.464;2023-04-21T03:25:20;6.20;99.90
27779;DHT22;30234;48.090;11.464;2023-04-21T03:29:21;6.20;99.90
27779;DHT22;30234;48.090;11.464;2023-04-21T03:33:22;6.10;99.90
27779;DHT22;30234;48.090;11.464;2023-04-21T03:37:23;6.10;99.90
27779;DHT22;30234;48.090;11.464;2023-04-21T03:41:24;6.10;99.90
27779;DHT22;30234;48.090;11.464;2023-04-21T03:45:25;6.10;99.90
27779;DHT22;30234;48.090;11.464;2023-04-21T03:49:25;5.90;99.90
27779;DHT22;30234;48.090;11.464;2023-04-21T03:53:26;5.70;99.90
27779;DHT22;30234;48.090;11.464;2023-04-21T03:57:27;5.60;99.90
27779;DHT22;30234;48.090;11.464;2023-04-21T04:01:28;5.40;99.90
27779;DHT22;30234;48.090;11.464;2023-04-21T04:05:29;5.30;99.90
27779;DHT22;30234;48.090;11.464;2023-04-21T04:09:30;5.30;99.90
27779;DHT22;30234;48.090;11.464;2023-04-21T04:13:30;5.40;99.90
27779;DHT22;30234;48.090;11.464;2023-04-21T04:17:31;5.40;99.90
27779;DHT22;30234;48.090;11.464;2023-04-21T04:21:32;5.40;99.90
27779;DHT22;30234;48.090;11.464;2023-04-21T04:25:33;5.30;99.90
27779;DHT22;30234;48.090;11.464;2023-04-21T04:29:34;5.50;99.90
27779;DHT22;30234;48.090;11.464;2023-04-21T04:33:35;5.50;99.90
27779;DHT22;30234;48.090;11.464;2023-04-21T04:37:37;5.60;99.90
27779;DHT22;30234;48.090;11.464;2023-04-21T04:41:38;5.50;99.90
27779;DHT22;30234;48.090;11.464;2023-04-21T04:45:40;5.50;99.90
27779;DHT22;30234;48.090;11.464;2023-04-21T04:49:43;5.60;99.90
27779;DHT22;30234;48.090;11.464;2023-04-21T04:53:44;5.70;99.90
27779;DHT22;30234;48.090;11.464;2023-04-21T04:57:44;5.70;99.90
27779;DHT22;30234;48.090;11.464;2023-04-21T05:01:45;5.80;99.90
27779;DHT22;30234;48.090;11.464;2023-04-21T05:05:46;6.00;99.90
27779;DHT22;30234;48.090;11.464;2023-04-21T05:09:47;6.00;99.90
27779;DHT22;30234;48.090;11.464;2023-04-21T05:13:48;6.00;99.90
27779;DHT22;30234;48.090;11.464;2023-04-21T05:17:49;5.90;99.90
27779;DHT22;30234;48.090;11.464;2023-04-21T05:21:50;6.10;99.90
27779;DHT22;30234;48.090;11.464;2023-04-21T05:25:50;6.50;99.90
27779;DHT22;30234;48.090;11.464;2023-04-21T05:29:51;6.80;99.90
27779;DHT22;30234;48.090;11.464;2023-04-21T05:33:54;6.90;99.90
27779;DHT22;30234;48.090;11.464;2023-04-21T05:37:54;7.00;99.90
27779;DHT22;30234;48.090;11.464;2023-04-21T05:41:55;7.10;99.90
27779;DHT22;30234;48.090;11.464;2023-04-21T05:45:57;7.60;99.90
27779;DHT22;30234;48.090;11.464;2023-04-21T05:49:58;8.20;99.90
27779;DHT22;30234;48.090;11.464;2023-04-21T05:53:58;8.70;99.90
27779;DHT22;30234;48.090;11.464;2023-04-21T05:57:59;9.20;99.90
27779;DHT22;30234;48.090;11.464;2023-04-21T06:02:00;10.30;99.90
27779;DHT22;30234;48.090;11.464;2023-04-21T06:06:04;12.50;99.90
27779;DHT22;30234;48.090;11.464;2023-04-21T06:10:06;14.20;99.90
27779;DHT22;30234;48.090;11.464;2023-04-21T06:14:08;17.50;99.90
27779;DHT22;30234;48.090;11.464;2023-04-21T06:18:09;19.90;99.90
27779;DHT22;30234;48.090;11.464;2023-04-21T06:22:10;20.60;93.00
27779;DHT22;30234;48.090;11.464;2023-04-21T06:26:10;19.60;88.90
27779;DHT22;30234;48.090;11.464;2023-04-21T06:30:12;20.40;87.20
27779;DHT22;30234;48.090;11.464;2023-04-21T06:34:13;18.80;88.80
27779;DHT22;30234;48.090;11.464;2023-04-21T06:38:15;20.20;85.20
27779;DHT22;30234;48.090;11.464;2023-04-21T06:42:16;21.20;82.00
27779;DHT22;30234;48.090;11.464;2023-04-21T06:46:17;21.70;74.90
27779;DHT22;30234;48.090;11.464;2023-04-21T06:50:18;21.30;75.50
27779;DHT22;30234;48.090;11.464;2023-04-21T06:54:18;17.80;82.10
27779;DHT22;30234;48.090;11.464;2023-04-21T06:58:19;15.30;91.00
27779;DHT22;30234;48.090;11.464;2023-04-21T07:02:20;13.10;98.70
27779;DHT22;30234;48.090;11.464;2023-04-21T07:06:21;13.20;99.90
27779;DHT22;30234;48.090;11.464;2023-04-21T07:10:22;11.80;99.90
27779;DHT22;30234;48.090;11.464;2023-04-21T07:14:23;11.60;99.90
27779;DHT22;30234;48.090;11.464;2023-04-21T07:18:23;11.90;99.90
27779;DHT22;30234;48.090;11.464;2023-04-21T07:22:24;13.20;99.90
27779;DHT22;30234;48.090;11.464;2023-04-21T07:26:25;13.50;99.90
27779;DHT22;30234;48.090;11.464;2023-04-21T07:30:26;14.10;99.90
27779;DHT22;30234;48.090;11.464;2023-04-21T07:34:27;14.00;99.90
27779;DHT22;30234;48.090;11.464;2023-04-21T07:38:28;14.20;99.90
27779;DHT22;30234;48.090;11.464;2023-04-21T07:42:29;14.40;99.90
27779;DHT22;30234;48.090;11.464;2023-04-21T07:46:29;15.00;99.90
27779;DHT22;30234;48.090;11.464;2023-04-21T07:50:31;15.10;99.90
27779;DHT22;30234;48.090;11.464;2023-04-21T07:54:32;15.20;99.90
27779;DHT22;30234;48.090;11.464;2023-04-21T07:58:33;16.50;99.90
27779;DHT22;30234;48.090;11.464;2023-04-21T08:02:34;18.50;99.00
27779;DHT22;30234;48.090;11.464;2023-04-21T08:06:35;17.30;97.70
27779;DHT22;30234;48.090;11.464;2023-04-21T08:10:36;15.60;99.90
27779;DHT22;30234;48.090;11.464;2023-04-21T08:14:36;16.10;99.90
27779;DHT22;30234;48.090;11.464;2023-04-21T08:18:37;15.60;99.90
27779;DHT22;30234;48.090;11.464;2023-04-21T08:22:38;15.80;99.90
27779;DHT22;30234;48.090;11.464;2023-04-21T08:26:39;17.90;99.90
27779;DHT22;30234;48.090;11.464;2023-04-21T08:30:41;19.90;95.00
27779;DHT22;30234;48.090;11.464;2023-04-21T08:34:42;22.10;85.30
27779;DHT22;30234;48.090;11.464;2023-04-21T08:38:44;21.10;85.60
27779;DHT22;30234;48.090;11.464;2023-04-21T08:42:47;20.20;85.10
27779;DHT22;30234;48.090;11.464;2023-04-21T08:46:48;20.00;86.90
27779;DHT22;30234;48.090;11.464;2023-04-21T08:50:52;22.00;80.20
27779;DHT22;30234;48.090;11.464;2023-04-21T08:54:54;19.20;86.10
27779;DHT22;30234;48.090;11.464;2023-04-21T08:58:55;19.00;88.30
27779;DHT22;30234;48.090;11.464;2023-04-21T09:02:58;18.70;89.10
27779;DHT22;30234;48.090;11.464;2023-04-21T09:06:59;19.00;88.50
27779;DHT22;30234;48.090;11.464;2023-04-21T09:11:00;17.50;91.60
27779;DHT22;30234;48.090;11.464;2023-04-21T09:15:05;16.20;93.90
27779;DHT22;30234;48.090;11.464;2023-04-21T09:19:13;16.30;94.40
27779;DHT22;30234;48.090;11.464;2023-04-21T09:23:16;16.10;94.90
27779;DHT22;30234;48.090;11.464;2023-04-21T09:27:16;17.20;94.40
27779;DHT22;30234;48.090;11.464;2023-04-21T09:31:18;18.90;91.40
27779;DHT22;30234;48.090;11.464;2023-04-21T09:35:20;19.20;90.80
27779;DHT22;30234;48.090;11.464;2023-04-21T09:39:21;20.40;90.30
27779;DHT22;30234;48.090;11.464;2023-04-21T09:43:23;20.50;88.20
27779;DHT22;30234;48.090;11.464;2023-04-21T09:47:24;20.40;85.10
27779;DHT22;30234;48.090;11.464;2023-04-21T09:51:29;22.60;81.00
27779;DHT22;30234;48.090;11.464;2023-04-21T09:55:31;21.90;80.40
27779;DHT22;30234;48.090;11.464;2023-04-21T09:59:37;22.30;76.40
27779;DHT22;30234;48.090;11.464;2023-04-21T10:03:43;22.50;76.60
27779;DHT22;30234;48.090;11.464;2023-04-21T10:07:46;23.80;72.30
27779;DHT22;30234;48.090;11.464;2023-04-21T10:11:48;24.00;67.50
27779;DHT22;30234;48.090;11.464;2023-04-21T10:16:02;21.90;75.90
27779;DHT22;30234;48.090;11.464;2023-04-21T10:20:07;23.00;71.40
27779;DHT22;30234;48.090;11.464;2023-04-21T10:24:13;23.50;70.80
27779;DHT22;30234;48.090;11.464;2023-04-21T10:28:17;22.00;74.50
27779;DHT22;30234;48.090;11.464;2023-04-21T10:32:39;22.30;74.40
27779;DHT22;30234;48.090;11.464;2023-04-21T10:40:45;21.70;72.70
27779;DHT22;30234;48.090;11.464;2023-04-21T10:49:04;22.00;73.40
27779;DHT22;30234;48.090;11.464;2023-04-21T10:53:12;22.80;71.60
27779;DHT22;30234;48.090;11.464;2023-04-21T10:57:15;21.80;70.90
27779;DHT22;30234;48.090;11.464;2023-04-21T11:01:16;20.40;74.50
27779;DHT22;30234;48.090;11.464;2023-04-21T11:05:18;20.90;76.10
27779;DHT22;30234;48.090;11.464;2023-04-21T11:09:19;22.70;71.10
27779;DHT22;30234;48.090;11.464;2023-04-21T11:13:25;21.20;72.60
27779;DHT22;30234;48.090;11.464;2023-04-21T11:17:26;22.00;73.00
27779;DHT22;30234;48.090;11.464;2023-04-21T11:21:28;22.30;72.10
27779;DHT22;30234;48.090;11.464;2023-04-21T11:25:29;22.10;73.10
27779;DHT22;30234;48.090;11.464;2023-04-21T11:29:30;22.30;73.60
27779;DHT22;30234;48.090;11.464;2023-04-21T11:33:38;21.50;74.50
27779;DHT22;30234;48.090;11.464;2023-04-21T11:37:39;22.40;75.20
27779;DHT22;30234;48.090;11.464;2023-04-21T11:41:42;21.10;78.80
27779;DHT22;30234;48.090;11.464;2023-04-21T11:45:48;22.00;77.80
27779;DHT22;30234;48.090;11.464;2023-04-21T11:49:54;21.80;76.40
27779;DHT22;30234;48.090;11.464;2023-04-21T11:53:58;22.80;74.10
27779;DHT22;30234;48.090;11.464;2023-04-21T11:57:59;24.10;73.20
27779;DHT22;30234;48.090;11.464;2023-04-21T12:02:00;23.10;74.10
27779;DHT22;30234;48.090;11.464;2023-04-21T12:06:01;22.60;76.80
27779;DHT22;30234;48.090;11.464;2023-04-21T12:10:08;23.10;74.40
27779;DHT22;30234;48.090;11.464;2023-04-21T12:14:14;23.40;74.60
27779;DHT22;30234;48.090;11.464;2023-04-21T12:18:16;21.00;74.20
27779;DHT22;30234;48.090;11.464;2023-04-21T12:22:17;20.40;81.10
27779;DHT22;30234;48.090;11.464;2023-04-21T12:26:18;20.40;79.80
27779;DHT22;30234;48.090;11.464;2023-04-21T12:30:20;20.80;81.60
27779;DHT22;30234;48.090;11.464;2023-04-21T12:34:21;21.30;80.50
27779;DHT22;30234;48.090;11.464;2023-04-21T12:38:22;20.20;81.90
27779;DHT22;30234;48.090;11.464;2023-04-21T12:42:22;19.60;82.80
27779;DHT22;30234;48.090;11.464;2023-04-21T12:46:23;19.40;84.70
27779;DHT22;30234;48.090;11.464;2023-04-21T12:50:24;19.60;83.80
27779;DHT22;30234;48.090;11.464;2023-04-21T12:54:25;19.60;83.30
27779;DHT22;30234;48.090;11.464;2023-04-21T12:58:26;19.70;80.60
27779;DHT22;30234;48.090;11.464;2023-04-21T13:02:27;20.50;78.10
27779;DHT22;30234;48.090;11.464;2023-04-21T13:06:30;20.30;75.80
27779;DHT22;30234;48.090;11.464;2023-04-21T13:10:32;20.20;76.00
27779;DHT22;30234;48.090;11.464;2023-04-21T13:14:33;20.00;77.60
27779;DHT22;30234;48.090;11.464;2023-04-21T13:18:34;21.50;76.80
27779;DHT22;30234;48.090;11.464;2023-04-21T13:22:35;20.90;77.60
27779;DHT22;30234;48.090;11.464;2023-04-21T13:26:36;20.40;79.00
27779;DHT22;30234;48.090;11.464;2023-04-21T13:30:37;20.60;77.80
27779;DHT22;30234;48.090;11.464;2023-04-21T13:34:38;20.00;77.70
27779;DHT22;30234;48.090;11.464;2023-04-21T13:38:39;19.60;79.70
27779;DHT22;30234;48.090;11.464;2023-04-21T13:42:40;20.30;79.60
27779;DHT22;30234;48.090;11.464;2023-04-21T13:46:41;20.30;76.80
27779;DHT22;30234;48.090;11.464;2023-04-21T13:50:42;19.50;76.30
27779;DHT22;30234;48.090;11.464;2023-04-21T13:54:42;19.30;78.40
27779;DHT22;30234;48.090;11.464;2023-04-21T13:58:44;19.80;76.90
27779;DHT22;30234;48.090;11.464;2023-04-21T14:02:45;20.90;72.30
27779;DHT22;30234;48.090;11.464;2023-04-21T14:06:48;20.70;73.00
27779;DHT22;30234;48.090;11.464;2023-04-21T14:10:50;20.20;76.00
27779;DHT22;30234;48.090;11.464;2023-04-21T14:14:51;20.20;74.50
27779;DHT22;30234;48.090;11.464;2023-04-21T14:18:52;20.60;75.40
27779;DHT22;30234;48.090;11.464;2023-04-21T14:22:53;21.30;72.30
27779;DHT22;30234;48.090;11.464;2023-04-21T14:26:54;22.30;67.60
27779;DHT22;30234;48.090;11.464;2023-04-21T14:30:56;22.30;66.90
27779;DHT22;30234;48.090;11.464;2023-04-21T14:34:56;21.90;68.80
27779;DHT22;30234;48.090;11.464;2023-04-21T14:38:58;21.10;71.10
27779;DHT22;30234;48.090;11.464;2023-04-21T14:42:59;21.90;71.90
27779;DHT22;30234;48.090;11.464;2023-04-21T14:47:00;22.50;67.70
27779;DHT22;30234;48.090;11.464;2023-04-21T14:51:01;22.30;67.80
27779;DHT22;30234;48.090;11.464;2023-04-21T14:55:02;21.90;67.10
27779;DHT22;30234;48.090;11.464;2023-04-21T14:59:03;22.10;66.40
27779;DHT22;30234;48.090;11.464;2023-04-21T15:03:04;22.80;66.60
27779;DHT22;30234;48.090;11.464;2023-04-21T15:07:05;20.80;68.40
27779;DHT22;30234;48.090;11.464;2023-04-21T15:11:06;20.80;68.70
27779;DHT22;30234;48.090;11.464;2023-04-21T15:15:07;22.40;67.20
27779;DHT22;30234;48.090;11.464;2023-04-21T15:19:08;21.90;66.90
27779;DHT22;30234;48.090;11.464;2023-04-21T15:23:12;21.00;67.90
27779;DHT22;30234;48.090;11.464;2023-04-21T15:27:13;21.10;66.50
27779;DHT22;30234;48.090;11.464;2023-04-21T15:31:14;20.90;66.20
27779;DHT22;30234;48.090;11.464;2023-04-21T15:35:15;20.50;67.90
27779;DHT22;30234;48.090;11.464;2023-04-21T15:39:16;20.30;71.70
27779;DHT22;30234;48.090;11.464;2023-04-21T15:43:17;20.90;68.40
27779;DHT22;30234;48.090;11.464;2023-04-21T15:47:18;21.10;68.50
27779;DHT22;30234;48.090;11.464;2023-04-21T15:51:19;21.10;67.90
27779;DHT22;30234;48.090;11.464;2023-04-21T15:55:20;20.50;66.50
27779;DHT22;30234;48.090;11.464;2023-04-21T15:59:22;20.40;68.20
27779;DHT22;30234;48.090;11.464;2023-04-21T16:03:23;20.30;68.20
27779;DHT22;30234;48.090;11.464;2023-04-21T16:07:25;20.40;67.90
27779;DHT22;30234;48.090;11.464;2023-04-21T16:11:26;20.00;69.20
27779;DHT22;30234;48.090;11.464;2023-04-21T16:15:28;19.90;68.10
27779;DHT22;30234;48.090;11.464;2023-04-21T16:19:29;19.50;70.50
27779;DHT22;30234;48.090;11.464;2023-04-21T16:23:30;19.50;71.20
27779;DHT22;30234;48.090;11.464;2023-04-21T16:27:31;19.50;71.80
27779;DHT22;30234;48.090;11.464;2023-04-21T16:31:32;19.60;72.80
27779;DHT22;30234;48.090;11.464;2023-04-21T16:35:33;19.20;73.60
27779;DHT22;30234;48.090;11.464;2023-04-21T16:39:34;18.80;74.40
27779;DHT22;30234;48.090;11.464;2023-04-21T16:43:35;18.30;76.20
27779;DHT22;30234;48.090;11.464;2023-04-21T16:47:36;18.00;76.60
27779;DHT22;30234;48.090;11.464;2023-04-21T16:51:38;17.60;78.40
27779;DHT22;30234;48.090;11.464;2023-04-21T16:55:43;17.50;78.80
27779;DHT22;30234;48.090;11.464;2023-04-21T16:59:44;17.40;79.40
27779;DHT22;30234;48.090;11.464;2023-04-21T17:03:45;17.30;79.90
27779;DHT22;30234;48.090;11.464;2023-04-21T17:07:46;17.20;80.70
27779;DHT22;30234;48.090;11.464;2023-04-21T17:11:47;17.10;81.10
27779;DHT22;30234;48.090;11.464;2023-04-21T17:15:48;17.40;80.00
27779;DHT22;30234;48.090;11.464;2023-04-21T17:19:49;17.50;80.00
27779;DHT22;30234;48.090;11.464;2023-04-21T17:23:52;17.30;80.00
27779;DHT22;30234;48.090;11.464;2023-04-21T17:27:53;17.10;80.40
27779;DHT22;30234;48.090;11.464;2023-04-21T17:31:53;16.90;81.70
27779;DHT22;30234;48.090;11.464;2023-04-21T17:35:55;16.70;82.50
27779;DHT22;30234;48.090;11.464;2023-04-21T17:39:56;16.60;83.20
27779;DHT22;30234;48.090;11.464;2023-04-21T17:43:56;16.50;83.80
27779;DHT22;30234;48.090;11.464;2023-04-21T17:47:58;16.40;84.80
27779;DHT22;30234;48.090;11.464;2023-04-21T17:51:59;16.50;84.90
27779;DHT22;30234;48.090;11.464;2023-04-21T17:56:00;16.40;85.90
27779;DHT22;30234;48.090;11.464;2023-04-21T18:00:01;16.30;86.60
27779;DHT22;30234;48.090;11.464;2023-04-21T18:04:06;16.10;87.40
27779;DHT22;30234;48.090;11.464;2023-04-21T18:08:07;15.90;88.20
27779;DHT22;30234;48.090;11.464;2023-04-21T18:12:08;15.70;89.20
27779;DHT22;30234;48.090;11.464;2023-04-21T18:16:09;15.30;90.40
27779;DHT22;30234;48.090;11.464;2023-04-21T18:20:10;15.10;91.30
27779;DHT22;30234;48.090;11.464;2023-04-21T18:24:13;15.20;91.30
27779;DHT22;30234;48.090;11.464;2023-04-21T18:28:14;15.10;91.50
27779;DHT22;30234;48.090;11.464;2023-04-21T18:32:15;15.00;92.00
27779;DHT22;30234;48.090;11.464;2023-04-21T18:36:17;14.80;92.70
27779;DHT22;30234;48.090;11.464;2023-04-21T18:40:17;14.60;93.30
27779;DHT22;30234;48.090;11.464;2023-04-21T18:44:18;14.20;94.60
27779;DHT22;30234;48.090;11.464;2023-04-21T18:48:19;14.10;95.40
27779;DHT22;30234;48.090;11.464;2023-04-21T18:52:20;13.90;96.80
27779;DHT22;30234;48.090;11.464;2023-04-21T18:56:21;13.70;97.80
27779;DHT22;30234;48.090;11.464;2023-04-21T19:00:22;13.60;99.10
27779;DHT22;30234;48.090;11.464;2023-04-21T19:04:22;13.50;99.90
27779;DHT22;30234;48.090;11.464;2023-04-21T19:08:24;13.30;99.90
27779;DHT22;30234;48.090;11.464;2023-04-21T19:12:25;13.10;99.90
27779;DHT22;30234;48.090;11.464;2023-04-21T19:16:27;13.00;99.90
27779;DHT22;30234;48.090;11.464;2023-04-21T19:20:28;13.00;99.90
27779;DHT22;30234;48.090;11.464;2023-04-21T19:24:30;13.00;99.90
27779;DHT22;30234;48.090;11.464;2023-04-21T19:28:31;12.90;99.90
27779;DHT22;30234;48.090;11.464;2023-04-21T19:32:32;13.00;99.90
27779;DHT22;30234;48.090;11.464;2023-04-21T19:36:33;13.00;99.90
27779;DHT22;30234;48.090;11.464;2023-04-21T19:40:34;13.10;99.90
27779;DHT22;30234;48.090;11.464;2023-04-21T19:44:35;13.10;99.90
27779;DHT22;30234;48.090;11.464;2023-04-21T19:48:37;13.10;99.90
27779;DHT22;30234;48.090;11.464;2023-04-21T19:52:38;13.00;99.90
27779;DHT22;30234;48.090;11.464;2023-04-21T19:56:39;13.00;99.90
27779;DHT22;30234;48.090;11.464;2023-04-21T20:00:40;12.80;99.90
27779;DHT22;30234;48.090;11.464;2023-04-21T20:04:42;12.80;99.90
27779;DHT22;30234;48.090;11.464;2023-04-21T20:08:43;12.60;99.90
27779;DHT22;30234;48.090;11.464;2023-04-21T20:12:44;12.50;99.90
27779;DHT22;30234;48.090;11.464;2023-04-21T20:16:45;12.40;99.90
27779;DHT22;30234;48.090;11.464;2023-04-21T20:20:46;12.40;99.90
27779;DHT22;30234;48.090;11.464;2023-04-21T20:24:47;12.30;99.90
27779;DHT22;30234;48.090;11.464;2023-04-21T20:28:48;12.30;99.90
27779;DHT22;30234;48.090;11.464;2023-04-21T20:32:49;12.20;99.90
27779;DHT22;30234;48.090;11.464;2023-04-21T20:36:50;12.10;99.90
27779;DHT22;30234;48.090;11.464;2023-04-21T20:40:54;11.90;99.90
27779;DHT22;30234;48.090;11.464;2023-04-21T20:44:55;11.80;99.90
27779;DHT22;30234;48.090;11.464;2023-04-21T20:48:56;11.60;99.90
27779;DHT22;30234;48.090;11.464;2023-04-21T20:52:57;11.30;99.90
27779;DHT22;30234;48.090;11.464;2023-04-21T20:56:58;11.10;99.90
27779;DHT22;30234;48.090;11.464;2023-04-21T21:00:59;11.00;99.90
27779;DHT22;30234;48.090;11.464;2023-04-21T21:04:59;10.90;99.90
27779;DHT22;30234;48.090;11.464;2023-04-21T21:09:00;10.70;99.90
27779;DHT22;30234;48.090;11.464;2023-04-21T21:13:01;10.50;99.90
27779;DHT22;30234;48.090;11.464;2023-04-21T21:17:03;10.30;99.90
27779;DHT22;30234;48.090;11.464;2023-04-21T21:21:03;10.10;99.90
27779;DHT22;30234;48.090;11.464;2023-04-21T21:25:06;10.00;99.90
27779;DHT22;30234;48.090;11.464;2023-04-21T21:29:07;9.90;99.90
27779;DHT22;30234;48.090;11.464;2023-04-21T21:33:08;9.70;99.90
27779;DHT22;30234;48.090;11.464;2023-04-21T21:37:09;9.60;99.90
27779;DHT22;30234;48.090;11.464;2023-04-21T21:41:10;9.50;99.90
27779;DHT22;30234;48.090;11.464;2023-04-21T21:45:12;9.50;99.90
27779;DHT22;30234;48.090;11.464;2023-04-21T21:49:12;9.40;99.90
27779;DHT22;30234;48.090;11.464;2023-04-21T21:53:13;9.20;99.90
27779;DHT22;30234;48.090;11.464;2023-04-21T21:57:14;9.10;99.90
27779;DHT22;30234;48.090;11.464;2023-04-21T22:01:16;9.00;99.90
27779;DHT22;30234;48.090;11.464;2023-04-21T22:05:17;8.90;99.90
27779;DHT22;30234;48.090;11.464;2023-04-21T22:09:18;8.90;99.90
27779;DHT22;30234;48.090;11.464;2023-04-21T22:13:20;8.70;99.90
27779;DHT22;30234;48.090;11.464;2023-04-21T22:17:21;8.60;99.90
27779;DHT22;30234;48.090;11.464;2023-04-21T22:21:22;8.40;99.90
27779;DHT22;30234;48.090;11.464;2023-04-21T22:25:26;8.30;99.90
27779;DHT22;30234;48.090;11.464;2023-04-21T22:29:27;8.10;99.90
27779;DHT22;30234;48.090;11.464;2023-04-21T22:33:28;8.00;99.90
27779;DHT22;30234;48.090;11.464;2023-04-21T22:37:29;8.00;99.90
27779;DHT22;30234;48.090;11.464;2023-04-21T22:41:30;8.00;99.90
27779;DHT22;30234;48.090;11.464;2023-04-21T22:45:31;8.00;99.90
27779;DHT22;30234;48.090;11.464;2023-04-21T22:49:32;8.00;99.90
27779;DHT22;30234;48.090;11.464;2023-04-21T22:53:33;8.00;99.90
27779;DHT22;30234;48.090;11.464;2023-04-21T22:57:34;7.90;99.90
27779;DHT22;30234;48.090;11.464;2023-04-21T23:01:38;7.90;99.90
27779;DHT22;30234;48.090;11.464;2023-04-21T23:05:39;7.80;99.90
27779;DHT22;30234;48.090;11.464;2023-04-21T23:09:40;7.80;99.90
27779;DHT22;30234;48.090;11.464;2023-04-21T23:13:41;7.70;99.90
27779;DHT22;30234;48.090;11.464;2023-04-21T23:17:42;7.70;99.90
27779;DHT22;30234;48.090;11.464;2023-04-21T23:21:44;7.60;99.90
27779;DHT22;30234;48.090;11.464;2023-04-21T23:25:45;7.40;99.90
27779;DHT22;30234;48.090;11.464;2023-04-21T23:29:46;7.40;99.90
27779;DHT22;30234;48.090;11.464;2023-04-21T23:33:47;7.40;99.90
27779;DHT22;30234;48.090;11.464;2023-04-21T23:37:48;7.40;99.90
27779;DHT22;30234;48.090;11.464;2023-04-21T23:41:49;7.30;99.90
27779;DHT22;30234;48.090;11.464;2023-04-21T23:45:50;7.20;99.90
27779;DHT22;30234;48.090;11.464;2023-04-21T23:49:51;7.20;99.90
27779;DHT22;30234;48.090;11.464;2023-04-21T23:53:52;7.20;99.90
27779;DHT22;30234;48.090;11.464;2023-04-21T23:57:53;7.00;99.90
